sensor_id;sensor_type;location;lat;lon;timestamp;temperature;humidity
21255;DHT22;10785;50.674;17.954;2023-06-26T00:00:28;17.20;99.90
21255;DHT22;10785;50.674;17.954;2023-06-26T00:02:59;17.10;99.90
21255;DHT22;10785;50.674;17.954;2023-06-26T00:05:27;17.10;99.90
21255;DHT22;10785;50.674;17.954;2023-06-26T00:07:57;17.10;99.90
21255;DHT22;10785;50.674;17.954;2023-06-26T00:10:28;17.00;99.90
21255;DHT22;10785;50.674;17.954;2023-06-26T00:12:56;16.90;99.90
21255;DHT22;10785;50.674;17.954;2023-06-26T00:15:25;16.90;99.90
21255;DHT22;10785;50.674;17.954;2023-06-26T00:18:00;16.90;99.90
21255;DHT22;10785;50.674;17.954;2023-06-26T00:20:31;17.00;99.90
21255;DHT22;10785;50.674;17.954;2023-06-26T00:23:01;17.00;99.90
21255;DHT22;10785;50.674;17.954;2023-06-26T00:25:31;17.10;99.90
21255;DHT22;10785;50.674;17.954;2023-06-26T00:28:00;17.10;99.90
21255;DHT22;10785;50.674;17.954;2023-06-26T00:30:29;17.10;99.90
21255;DHT22;10785;50.674;17.954;2023-06-26T00:33:00;17.10;99.90
21255;DHT22;10785;50.674;17.954;2023-06-26T00:35:31;17.00;99.90
21255;DHT22;10785;50.674;17.954;2023-06-26T00:38:00;17.00;99.90
21255;DHT22;10785;50.674;17.954;2023-06-26T00:40:28;17.00;99.90
21255;DHT22;10785;50.674;17.954;2023-06-26T00:42:57;16.90;99.90
21255;DHT22;10785;50.674;17.954;2023-06-26T00:45:26;16.90;99.90
21255;DHT22;10785;50.674;17.954;2023-06-26T00:48:10;16.90;99.90
21255;DHT22;10785;50.674;17.954;2023-06-26T00:50:41;16.90;99.90
21255;DHT22;10785;50.674;17.954;2023-06-26T00:53:11;16.90;99.90
21255;DHT22;10785;50.674;17.954;2023-06-26T00:55:40;16.90;99.90
21255;DHT22;10785;50.674;17.954;2023-06-26T00:58:09;16.80;99.90
21255;DHT22;10785;50.674;17.954;2023-06-26T01:00:39;16.70;99.90
21255;DHT22;10785;50.674;17.954;2023-06-26T01:03:09;16.60;99.90
21255;DHT22;10785;50.674;17.954;2023-06-26T01:05:38;16.60;99.90
21255;DHT22;10785;50.674;17.954;2023-06-26T01:08:07;16.50;99.90
21255;DHT22;10785;50.674;17.954;2023-06-26T01:10:37;16.50;99.90
21255;DHT22;10785;50.674;17.954;2023-06-26T01:13:08;16.40;99.90
21255;DHT22;10785;50.674;17.954;2023-06-26T01:15:36;16.40;99.90
21255;DHT22;10785;50.674;17.954;2023-06-26T01:18:06;16.40;99.90
21255;DHT22;10785;50.674;17.954;2023-06-26T01:20:37;16.30;99.90
21255;DHT22;10785;50.674;17.954;2023-06-26T01:23:15;16.30;99.90
21255;DHT22;10785;50.674;17.954;2023-06-26T01:25:57;16.30;99.90
21255;DHT22;10785;50.674;17.954;2023-06-26T01:28:32;16.20;99.90
21255;DHT22;10785;50.674;17.954;2023-06-26T01:31:03;16.20;99.90
21255;DHT22;10785;50.674;17.954;2023-06-26T01:33:32;16.10;99.90
21255;DHT22;10785;50.674;17.954;2023-06-26T01:36:02;16.10;99.90
21255;DHT22;10785;50.674;17.954;2023-06-26T01:38:31;16.10;99.90
21255;DHT22;10785;50.674;17.954;2023-06-26T01:41:00;16.10;99.90
21255;DHT22;10785;50.674;17.954;2023-06-26T01:43:34;16.10;99.90
21255;DHT22;10785;50.674;17.954;2023-06-26T01:46:11;16.00;99.90
21255;DHT22;10785;50.674;17.954;2023-06-26T01:48:51;16.00;99.90
21255;DHT22;10785;50.674;17.954;2023-06-26T01:51:27;16.00;99.90
21255;DHT22;10785;50.674;17.954;2023-06-26T01:53:59;16.00;99.90
21255;DHT22;10785;50.674;17.954;2023-06-26T01:56:29;16.00;99.90
21255;DHT22;10785;50.674;17.954;2023-06-26T01:59:00;16.00;99.90
21255;DHT22;10785;50.674;17.954;2023-06-26T02:01:33;15.90;99.90
21255;DHT22;10785;50.674;17.954;2023-06-26T02:04:02;15.90;99.90
21255;DHT22;10785;50.674;17.954;2023-06-26T02:06:31;15.90;99.90
21255;DHT22;10785;50.674;17.954;2023-06-26T02:09:00;15.80;99.90
21255;DHT22;10785;50.674;17.954;2023-06-26T02:11:30;15.80;99.90
21255;DHT22;10785;50.674;17.954;2023-06-26T02:14:00;15.70;99.90
21255;DHT22;10785;50.674;17.954;2023-06-26T02:16:29;15.70;99.90
21255;DHT22;10785;50.674;17.954;2023-06-26T02:18:58;15.60;99.90
21255;DHT22;10785;50.674;17.954;2023-06-26T02:21:46;15.60;99.90
21255;DHT22;10785;50.674;17.954;2023-06-26T02:24:16;15.60;99.90
21255;DHT22;10785;50.674;17.954;2023-06-26T02:26:44;15.60;99.90
21255;DHT22;10785;50.674;17.954;2023-06-26T02:29:15;15.60;99.90
21255;DHT22;10785;50.674;17.954;2023-06-26T02:31:44;15.60;99.90
21255;DHT22;10785;50.674;17.954;2023-06-26T02:34:12;15.50;99.90
21255;DHT22;10785;50.674;17.954;2023-06-26T02:36:41;15.40;99.90
21255;DHT22;10785;50.674;17.954;2023-06-26T02:39:10;15.50;99.90
21255;DHT22;10785;50.674;17.954;2023-06-26T02:41:40;15.50;99.90
21255;DHT22;10785;50.674;17.954;2023-06-26T02:44:11;15.50;99.90
21255;DHT22;10785;50.674;17.954;2023-06-26T02:46:41;15.50;99.90
21255;DHT22;10785;50.674;17.954;2023-06-26T02:49:10;15.60;99.90
21255;DHT22;10785;50.674;17.954;2023-06-26T02:51:39;15.60;99.90
21255;DHT22;10785;50.674;17.954;2023-06-26T02:54:17;15.70;99.90
21255;DHT22;10785;50.674;17.954;2023-06-26T02:56:50;15.70;99.90
21255;DHT22;10785;50.674;17.954;2023-06-26T02:59:24;15.80;99.90
21255;DHT22;10785;50.674;17.954;2023-06-26T03:01:56;15.80;99.90
21255;DHT22;10785;50.674;17.954;2023-06-26T03:04:36;15.90;99.90
21255;DHT22;10785;50.674;17.954;2023-06-26T03:07:08;16.30;99.90
21255;DHT22;10785;50.674;17.954;2023-06-26T03:09:38;16.80;99.90
21255;DHT22;10785;50.674;17.954;2023-06-26T03:12:09;17.20;99.90
21255;DHT22;10785;50.674;17.954;2023-06-26T03:14:38;17.80;99.90
21255;DHT22;10785;50.674;17.954;2023-06-26T03:17:08;18.30;99.90
21255;DHT22;10785;50.674;17.954;2023-06-26T03:19:39;18.80;99.90
21255;DHT22;10785;50.674;17.954;2023-06-26T03:22:22;19.30;99.90
21255;DHT22;10785;50.674;17.954;2023-06-26T03:24:51;19.70;99.90
21255;DHT22;10785;50.674;17.954;2023-06-26T03:27:20;20.20;99.90
21255;DHT22;10785;50.674;17.954;2023-06-26T03:29:49;20.50;99.90
21255;DHT22;10785;50.674;17.954;2023-06-26T03:32:21;20.80;99.90
21255;DHT22;10785;50.674;17.954;2023-06-26T03:34:50;21.10;99.90
21255;DHT22;10785;50.674;17.954;2023-06-26T03:37:20;21.40;99.90
21255;DHT22;10785;50.674;17.954;2023-06-26T03:39:50;21.50;99.90
21255;DHT22;10785;50.674;17.954;2023-06-26T03:42:19;21.80;99.90
21255;DHT22;10785;50.674;17.954;2023-06-26T03:44:48;22.10;99.90
21255;DHT22;10785;50.674;17.954;2023-06-26T03:47:18;22.10;99.90
21255;DHT22;10785;50.674;17.954;2023-06-26T03:49:48;22.80;99.90
21255;DHT22;10785;50.674;17.954;2023-06-26T03:52:17;23.10;99.90
21255;DHT22;10785;50.674;17.954;2023-06-26T03:54:45;23.30;99.90
21255;DHT22;10785;50.674;17.954;2023-06-26T03:57:17;23.40;98.20
21255;DHT22;10785;50.674;17.954;2023-06-26T03:59:47;23.60;96.70
21255;DHT22;10785;50.674;17.954;2023-06-26T04:02:16;23.50;97.50
21255;DHT22;10785;50.674;17.954;2023-06-26T04:04:44;23.70;95.90
21255;DHT22;10785;50.674;17.954;2023-06-26T04:07:15;23.80;95.90
21255;DHT22;10785;50.674;17.954;2023-06-26T04:09:44;24.20;93.10
21255;DHT22;10785;50.674;17.954;2023-06-26T04:12:13;24.20;93.10
21255;DHT22;10785;50.674;17.954;2023-06-26T04:14:42;24.30;92.10
21255;DHT22;10785;50.674;17.954;2023-06-26T04:17:11;24.20;93.10
21255;DHT22;10785;50.674;17.954;2023-06-26T04:19:40;24.60;90.30
21255;DHT22;10785;50.674;17.954;2023-06-26T04:22:09;24.90;88.60
21255;DHT22;10785;50.674;17.954;2023-06-26T04:24:39;24.80;86.30
21255;DHT22;10785;50.674;17.954;2023-06-26T04:27:08;25.20;81.00
21255;DHT22;10785;50.674;17.954;2023-06-26T04:29:37;25.70;70.00
21255;DHT22;10785;50.674;17.954;2023-06-26T04:32:06;26.10;64.50
21255;DHT22;10785;50.674;17.954;2023-06-26T04:34:35;26.30;57.70
21255;DHT22;10785;50.674;17.954;2023-06-26T04:37:08;25.90;63.80
21255;DHT22;10785;50.674;17.954;2023-06-26T04:39:39;25.90;62.00
21255;DHT22;10785;50.674;17.954;2023-06-26T04:42:08;26.30;55.70
21255;DHT22;10785;50.674;17.954;2023-06-26T04:44:38;26.60;51.20
21255;DHT22;10785;50.674;17.954;2023-06-26T04:47:08;26.80;46.10
21255;DHT22;10785;50.674;17.954;2023-06-26T04:49:37;26.90;44.60
21255;DHT22;10785;50.674;17.954;2023-06-26T04:52:06;27.20;39.70
21255;DHT22;10785;50.674;17.954;2023-06-26T04:54:35;27.30;36.00
21255;DHT22;10785;50.674;17.954;2023-06-26T04:57:06;27.50;35.60
21255;DHT22;10785;50.674;17.954;2023-06-26T04:59:36;27.70;29.40
21255;DHT22;10785;50.674;17.954;2023-06-26T05:02:05;28.00;27.00
21255;DHT22;10785;50.674;17.954;2023-06-26T05:04:34;28.20;24.50
21255;DHT22;10785;50.674;17.954;2023-06-26T05:07:03;28.30;23.10
21255;DHT22;10785;50.674;17.954;2023-06-26T05:09:32;28.30;21.80
21255;DHT22;10785;50.674;17.954;2023-06-26T05:12:02;28.70;18.40
21255;DHT22;10785;50.674;17.954;2023-06-26T05:14:32;28.10;22.20
21255;DHT22;10785;50.674;17.954;2023-06-26T05:17:01;28.40;20.50
21255;DHT22;10785;50.674;17.954;2023-06-26T05:19:29;28.60;18.30
21255;DHT22;10785;50.674;17.954;2023-06-26T05:21:59;28.60;17.50
21255;DHT22;10785;50.674;17.954;2023-06-26T05:24:31;28.00;19.60
21255;DHT22;10785;50.674;17.954;2023-06-26T05:27:00;28.00;22.40
21255;DHT22;10785;50.674;17.954;2023-06-26T05:29:32;28.00;22.50
21255;DHT22;10785;50.674;17.954;2023-06-26T05:32:05;28.20;23.50
21255;DHT22;10785;50.674;17.954;2023-06-26T05:34:35;27.80;24.60
21255;DHT22;10785;50.674;17.954;2023-06-26T05:37:04;28.00;21.90
21255;DHT22;10785;50.674;17.954;2023-06-26T05:39:33;27.70;26.00
21255;DHT22;10785;50.674;17.954;2023-06-26T05:42:03;27.30;31.10
21255;DHT22;10785;50.674;17.954;2023-06-26T05:44:33;27.00;38.40
21255;DHT22;10785;50.674;17.954;2023-06-26T05:47:02;27.20;36.90
21255;DHT22;10785;50.674;17.954;2023-06-26T05:49:31;27.20;38.10
21255;DHT22;10785;50.674;17.954;2023-06-26T05:52:00;27.70;30.00
21255;DHT22;10785;50.674;17.954;2023-06-26T05:54:31;28.10;25.90
21255;DHT22;10785;50.674;17.954;2023-06-26T05:57:00;28.40;24.60
21255;DHT22;10785;50.674;17.954;2023-06-26T05:59:30;28.30;23.30
21255;DHT22;10785;50.674;17.954;2023-06-26T06:02:01;28.50;22.20
21255;DHT22;10785;50.674;17.954;2023-06-26T06:04:30;28.30;23.50
21255;DHT22;10785;50.674;17.954;2023-06-26T06:06:58;28.00;23.90
21255;DHT22;10785;50.674;17.954;2023-06-26T06:09:34;28.60;22.00
21255;DHT22;10785;50.674;17.954;2023-06-26T06:12:04;29.60;14.60
21255;DHT22;10785;50.674;17.954;2023-06-26T06:14:33;29.40;13.70
21255;DHT22;10785;50.674;17.954;2023-06-26T06:17:03;29.60;13.50
21255;DHT22;10785;50.674;17.954;2023-06-26T06:19:32;29.40;12.30
21255;DHT22;10785;50.674;17.954;2023-06-26T06:22:01;29.20;12.70
21255;DHT22;10785;50.674;17.954;2023-06-26T06:24:29;29.40;12.70
21255;DHT22;10785;50.674;17.954;2023-06-26T06:26:58;29.40;11.40
21255;DHT22;10785;50.674;17.954;2023-06-26T06:29:27;30.00;10.40
21255;DHT22;10785;50.674;17.954;2023-06-26T06:31:56;30.50;7.30
21255;DHT22;10785;50.674;17.954;2023-06-26T06:34:26;30.70;5.30
21255;DHT22;10785;50.674;17.954;2023-06-26T06:36:55;30.30;5.10
21255;DHT22;10785;50.674;17.954;2023-06-26T06:39:35;30.40;2.70
21255;DHT22;10785;50.674;17.954;2023-06-26T06:42:04;29.80;5.30
21255;DHT22;10785;50.674;17.954;2023-06-26T06:44:33;29.80;5.40
21255;DHT22;10785;50.674;17.954;2023-06-26T06:47:01;28.90;8.20
21255;DHT22;10785;50.674;17.954;2023-06-26T06:49:31;29.00;10.70
21255;DHT22;10785;50.674;17.954;2023-06-26T06:52:00;29.60;9.10
21255;DHT22;10785;50.674;17.954;2023-06-26T07:46:06;29.00;3.40
21255;DHT22;10785;50.674;17.954;2023-06-26T07:48:34;29.70;1.00
21255;DHT22;10785;50.674;17.954;2023-06-26T07:51:03;29.40;2.10
21255;DHT22;10785;50.674;17.954;2023-06-26T07:53:31;28.60;7.10
21255;DHT22;10785;50.674;17.954;2023-06-26T07:56:00;28.30;6.00
21255;DHT22;10785;50.674;17.954;2023-06-26T07:58:29;28.00;6.70
21255;DHT22;10785;50.674;17.954;2023-06-26T08:00:57;27.90;3.90
21255;DHT22;10785;50.674;17.954;2023-06-26T08:03:27;27.80;2.40
21255;DHT22;10785;50.674;17.954;2023-06-26T08:06:02;27.80;2.50
21255;DHT22;10785;50.674;17.954;2023-06-26T08:08:32;27.90;1.00
21255;DHT22;10785;50.674;17.954;2023-06-26T08:11:01;26.80;3.30
21255;DHT22;10785;50.674;17.954;2023-06-26T08:13:30;26.60;2.40
21255;DHT22;10785;50.674;17.954;2023-06-26T08:15:58;26.30;4.10
21255;DHT22;10785;50.674;17.954;2023-06-26T08:18:28;26.50;9.70
21255;DHT22;10785;50.674;17.954;2023-06-26T08:20:57;26.90;5.70
21255;DHT22;10785;50.674;17.954;2023-06-26T08:23:25;27.30;4.00
21255;DHT22;10785;50.674;17.954;2023-06-26T08:25:54;27.70;1.40
21255;DHT22;10785;50.674;17.954;2023-06-26T08:28:26;27.30;1.00
21255;DHT22;10785;50.674;17.954;2023-06-26T08:30:54;26.60;1.00
21255;DHT22;10785;50.674;17.954;2023-06-26T08:33:23;26.50;1.00
21255;DHT22;10785;50.674;17.954;2023-06-26T08:35:53;26.50;1.30
21255;DHT22;10785;50.674;17.954;2023-06-26T08:38:21;26.40;1.00
21255;DHT22;10785;50.674;17.954;2023-06-26T08:40:50;26.80;3.10
21255;DHT22;10785;50.674;17.954;2023-06-26T08:43:19;27.00;1.00
21255;DHT22;10785;50.674;17.954;2023-06-26T08:45:49;26.60;1.20
21255;DHT22;10785;50.674;17.954;2023-06-26T08:48:20;26.50;1.30
21255;DHT22;10785;50.674;17.954;2023-06-26T08:50:54;26.20;1.00
21255;DHT22;10785;50.674;17.954;2023-06-26T08:53:29;26.40;4.20
21255;DHT22;10785;50.674;17.954;2023-06-26T08:55:59;26.50;4.80
21255;DHT22;10785;50.674;17.954;2023-06-26T08:58:29;26.80;4.90
21255;DHT22;10785;50.674;17.954;2023-06-26T09:00:58;27.10;2.20
21255;DHT22;10785;50.674;17.954;2023-06-26T09:03:27;27.50;1.00
21255;DHT22;10785;50.674;17.954;2023-06-26T09:05:57;27.70;1.00
21255;DHT22;10785;50.674;17.954;2023-06-26T09:08:26;27.40;1.00
21255;DHT22;10785;50.674;17.954;2023-06-26T09:10:55;27.50;1.00
21255;DHT22;10785;50.674;17.954;2023-06-26T09:13:24;27.70;1.00
21255;DHT22;10785;50.674;17.954;2023-06-26T09:15:57;27.40;1.00
21255;DHT22;10785;50.674;17.954;2023-06-26T09:18:26;27.10;1.00
21255;DHT22;10785;50.674;17.954;2023-06-26T09:20:56;27.20;1.00
21255;DHT22;10785;50.674;17.954;2023-06-26T09:23:25;27.40;1.00
21255;DHT22;10785;50.674;17.954;2023-06-26T09:25:54;27.80;1.00
21255;DHT22;10785;50.674;17.954;2023-06-26T09:28:23;28.00;1.00
21255;DHT22;10785;50.674;17.954;2023-06-26T09:30:52;27.80;1.00
21255;DHT22;10785;50.674;17.954;2023-06-26T09:33:21;27.00;1.00
21255;DHT22;10785;50.674;17.954;2023-06-26T09:35:49;27.00;1.00
21255;DHT22;10785;50.674;17.954;2023-06-26T09:38:20;26.70;1.00
21255;DHT22;10785;50.674;17.954;2023-06-26T09:40:48;26.50;1.00
21255;DHT22;10785;50.674;17.954;2023-06-26T09:43:18;26.40;1.00
21255;DHT22;10785;50.674;17.954;2023-06-26T09:45:47;26.50;1.00
21255;DHT22;10785;50.674;17.954;2023-06-26T09:48:16;26.50;1.00
21255;DHT22;10785;50.674;17.954;2023-06-26T09:50:46;26.50;1.00
21255;DHT22;10785;50.674;17.954;2023-06-26T09:53:36;26.40;1.00
21255;DHT22;10785;50.674;17.954;2023-06-26T09:56:06;26.40;1.00
21255;DHT22;10785;50.674;17.954;2023-06-26T09:58:36;26.50;1.00
21255;DHT22;10785;50.674;17.954;2023-06-26T10:01:05;26.60;1.00
21255;DHT22;10785;50.674;17.954;2023-06-26T10:03:35;27.10;1.00
21255;DHT22;10785;50.674;17.954;2023-06-26T10:06:04;27.50;1.00
21255;DHT22;10785;50.674;17.954;2023-06-26T10:08:34;27.70;1.00
21255;DHT22;10785;50.674;17.954;2023-06-26T10:11:04;27.80;1.00
21255;DHT22;10785;50.674;17.954;2023-06-26T10:13:41;27.50;1.00
21255;DHT22;10785;50.674;17.954;2023-06-26T10:16:17;27.10;1.00
21255;DHT22;10785;50.674;17.954;2023-06-26T10:18:47;26.90;1.00
21255;DHT22;10785;50.674;17.954;2023-06-26T10:21:17;26.40;1.00
21255;DHT22;10785;50.674;17.954;2023-06-26T10:23:47;26.90;1.00
21255;DHT22;10785;50.674;17.954;2023-06-26T10:26:19;26.80;1.00
21255;DHT22;10785;50.674;17.954;2023-06-26T10:28:50;26.50;1.00
21255;DHT22;10785;50.674;17.954;2023-06-26T10:31:22;26.40;1.00
21255;DHT22;10785;50.674;17.954;2023-06-26T10:33:52;26.20;1.00
21255;DHT22;10785;50.674;17.954;2023-06-26T10:36:29;26.10;1.00
21255;DHT22;10785;50.674;17.954;2023-06-26T10:39:01;26.30;1.00
21255;DHT22;10785;50.674;17.954;2023-06-26T10:41:38;26.50;1.00
21255;DHT22;10785;50.674;17.954;2023-06-26T10:44:40;26.80;1.00
21255;DHT22;10785;50.674;17.954;2023-06-26T10:47:10;27.10;1.00
21255;DHT22;10785;50.674;17.954;2023-06-26T10:49:40;27.20;1.00
21255;DHT22;10785;50.674;17.954;2023-06-26T10:52:36;27.20;1.00
21255;DHT22;10785;50.674;17.954;2023-06-26T10:55:08;26.90;1.00
21255;DHT22;10785;50.674;17.954;2023-06-26T10:57:38;26.70;1.00
21255;DHT22;10785;50.674;17.954;2023-06-26T11:00:10;26.70;1.00
21255;DHT22;10785;50.674;17.954;2023-06-26T11:02:48;26.70;1.00
21255;DHT22;10785;50.674;17.954;2023-06-26T11:05:24;26.80;1.00
21255;DHT22;10785;50.674;17.954;2023-06-26T11:08:06;26.90;1.00
21255;DHT22;10785;50.674;17.954;2023-06-26T11:10:48;26.70;1.00
21255;DHT22;10785;50.674;17.954;2023-06-26T11:13:20;26.40;1.00
21255;DHT22;10785;50.674;17.954;2023-06-26T11:15:50;26.90;1.00
21255;DHT22;10785;50.674;17.954;2023-06-26T11:18:19;27.30;1.00
21255;DHT22;10785;50.674;17.954;2023-06-26T11:20:47;27.30;1.00
21255;DHT22;10785;50.674;17.954;2023-06-26T11:23:21;27.40;1.00
21255;DHT22;10785;50.674;17.954;2023-06-26T11:25:50;27.60;1.00
21255;DHT22;10785;50.674;17.954;2023-06-26T11:28:21;27.90;1.00
21255;DHT22;10785;50.674;17.954;2023-06-26T11:30:50;27.90;1.00
21255;DHT22;10785;50.674;17.954;2023-06-26T11:33:26;27.80;1.00
21255;DHT22;10785;50.674;17.954;2023-06-26T11:35:55;27.80;1.00
21255;DHT22;10785;50.674;17.954;2023-06-26T11:38:24;27.80;1.00
21255;DHT22;10785;50.674;17.954;2023-06-26T11:40:52;28.20;1.00
21255;DHT22;10785;50.674;17.954;2023-06-26T11:43:22;28.60;1.00
21255;DHT22;10785;50.674;17.954;2023-06-26T11:45:52;28.50;1.00
21255;DHT22;10785;50.674;17.954;2023-06-26T11:48:20;28.90;1.00
21255;DHT22;10785;50.674;17.954;2023-06-26T11:50:50;29.00;1.00
21255;DHT22;10785;50.674;17.954;2023-06-26T11:53:19;29.20;1.00
21255;DHT22;10785;50.674;17.954;2023-06-26T11:55:48;29.20;1.00
21255;DHT22;10785;50.674;17.954;2023-06-26T11:58:16;29.00;1.00
21255;DHT22;10785;50.674;17.954;2023-06-26T12:00:47;28.70;1.00
21255;DHT22;10785;50.674;17.954;2023-06-26T12:03:16;28.70;1.00
21255;DHT22;10785;50.674;17.954;2023-06-26T12:05:45;29.00;1.00
21255;DHT22;10785;50.674;17.954;2023-06-26T12:08:14;29.20;1.00
21255;DHT22;10785;50.674;17.954;2023-06-26T12:10:43;29.30;1.00
21255;DHT22;10785;50.674;17.954;2023-06-26T12:13:13;29.40;1.00
21255;DHT22;10785;50.674;17.954;2023-06-26T12:15:41;29.40;1.00
21255;DHT22;10785;50.674;17.954;2023-06-26T12:18:11;29.80;1.00
21255;DHT22;10785;50.674;17.954;2023-06-26T12:20:40;29.80;1.00
21255;DHT22;10785;50.674;17.954;2023-06-26T12:23:12;29.90;1.00
21255;DHT22;10785;50.674;17.954;2023-06-26T12:25:41;30.10;1.00
21255;DHT22;10785;50.674;17.954;2023-06-26T12:28:17;29.30;1.00
21255;DHT22;10785;50.674;17.954;2023-06-26T12:30:46;29.40;1.00
21255;DHT22;10785;50.674;17.954;2023-06-26T12:33:16;29.40;1.00
21255;DHT22;10785;50.674;17.954;2023-06-26T12:35:45;29.40;1.00
21255;DHT22;10785;50.674;17.954;2023-06-26T12:38:14;29.40;1.00
21255;DHT22;10785;50.674;17.954;2023-06-26T12:40:45;29.20;1.00
21255;DHT22;10785;50.674;17.954;2023-06-26T12:43:23;29.30;1.00
21255;DHT22;10785;50.674;17.954;2023-06-26T12:45:54;28.90;1.00
21255;DHT22;10785;50.674;17.954;2023-06-26T12:48:37;28.60;1.00
21255;DHT22;10785;50.674;17.954;2023-06-26T12:51:11;28.90;1.00
21255;DHT22;10785;50.674;17.954;2023-06-26T12:53:39;29.10;1.00
21255;DHT22;10785;50.674;17.954;2023-06-26T12:56:08;29.40;1.00
21255;DHT22;10785;50.674;17.954;2023-06-26T12:58:38;29.70;1.00
21255;DHT22;10785;50.674;17.954;2023-06-26T13:01:07;29.70;1.00
21255;DHT22;10785;50.674;17.954;2023-06-26T13:03:39;29.60;1.00
21255;DHT22;10785;50.674;17.954;2023-06-26T13:06:08;29.70;1.00
21255;DHT22;10785;50.674;17.954;2023-06-26T13:08:37;29.10;1.00
21255;DHT22;10785;50.674;17.954;2023-06-26T13:11:05;29.00;1.00
21255;DHT22;10785;50.674;17.954;2023-06-26T13:13:34;28.60;1.00
21255;DHT22;10785;50.674;17.954;2023-06-26T13:16:03;28.20;1.00
21255;DHT22;10785;50.674;17.954;2023-06-26T13:18:32;28.00;1.00
21255;DHT22;10785;50.674;17.954;2023-06-26T13:21:02;27.80;1.00
21255;DHT22;10785;50.674;17.954;2023-06-26T13:23:31;27.70;1.00
21255;DHT22;10785;50.674;17.954;2023-06-26T13:25:59;27.80;1.00
21255;DHT22;10785;50.674;17.954;2023-06-26T13:28:28;27.90;1.00
21255;DHT22;10785;50.674;17.954;2023-06-26T13:30:57;27.70;1.00
21255;DHT22;10785;50.674;17.954;2023-06-26T13:33:25;27.40;1.00
21255;DHT22;10785;50.674;17.954;2023-06-26T13:35:54;27.50;1.00
21255;DHT22;10785;50.674;17.954;2023-06-26T13:38:24;27.70;1.00
21255;DHT22;10785;50.674;17.954;2023-06-26T13:40:53;27.90;1.00
21255;DHT22;10785;50.674;17.954;2023-06-26T13:43:24;28.10;1.00
21255;DHT22;10785;50.674;17.954;2023-06-26T13:45:53;28.10;1.00
21255;DHT22;10785;50.674;17.954;2023-06-26T13:48:22;28.30;1.00
21255;DHT22;10785;50.674;17.954;2023-06-26T13:50:51;28.10;1.00
21255;DHT22;10785;50.674;17.954;2023-06-26T13:53:21;28.20;1.00
21255;DHT22;10785;50.674;17.954;2023-06-26T13:55:51;28.00;1.00
21255;DHT22;10785;50.674;17.954;2023-06-26T13:58:20;28.10;1.00
21255;DHT22;10785;50.674;17.954;2023-06-26T14:00:53;28.20;1.00
21255;DHT22;10785;50.674;17.954;2023-06-26T14:03:22;28.30;1.00
21255;DHT22;10785;50.674;17.954;2023-06-26T14:05:51;28.30;1.00
21255;DHT22;10785;50.674;17.954;2023-06-26T14:08:20;28.30;1.00
21255;DHT22;10785;50.674;17.954;2023-06-26T14:10:50;28.50;1.00
21255;DHT22;10785;50.674;17.954;2023-06-26T14:13:19;28.60;1.00
21255;DHT22;10785;50.674;17.954;2023-06-26T14:15:50;28.40;1.00
21255;DHT22;10785;50.674;17.954;2023-06-26T14:18:20;28.40;1.00
21255;DHT22;10785;50.674;17.954;2023-06-26T14:20:51;28.30;1.00
21255;DHT22;10785;50.674;17.954;2023-06-26T14:52:50;28.30;1.00
21255;DHT22;10785;50.674;17.954;2023-06-26T14:55:19;28.20;1.00
21255;DHT22;10785;50.674;17.954;2023-06-26T14:57:47;28.00;1.00
21255;DHT22;10785;50.674;17.954;2023-06-26T15:00:17;28.20;1.00
21255;DHT22;10785;50.674;17.954;2023-06-26T15:02:47;28.30;1.00
21255;DHT22;10785;50.674;17.954;2023-06-26T15:05:16;28.40;1.00
21255;DHT22;10785;50.674;17.954;2023-06-26T15:07:44;28.30;1.00
21255;DHT22;10785;50.674;17.954;2023-06-26T15:10:14;28.50;1.00
21255;DHT22;10785;50.674;17.954;2023-06-26T15:12:45;28.30;1.00
21255;DHT22;10785;50.674;17.954;2023-06-26T15:15:15;28.30;1.00
21255;DHT22;10785;50.674;17.954;2023-06-26T15:17:45;28.30;1.00
21255;DHT22;10785;50.674;17.954;2023-06-26T15:20:14;28.30;1.00
21255;DHT22;10785;50.674;17.954;2023-06-26T15:22:42;28.30;1.00
21255;DHT22;10785;50.674;17.954;2023-06-26T15:25:11;28.30;1.00
21255;DHT22;10785;50.674;17.954;2023-06-26T15:27:41;28.40;1.00
21255;DHT22;10785;50.674;17.954;2023-06-26T15:30:11;28.50;1.00
21255;DHT22;10785;50.674;17.954;2023-06-26T15:32:40;28.50;1.00
21255;DHT22;10785;50.674;17.954;2023-06-26T15:35:09;28.30;1.00
21255;DHT22;10785;50.674;17.954;2023-06-26T15:37:37;28.30;1.00
21255;DHT22;10785;50.674;17.954;2023-06-26T15:40:07;28.40;1.00
21255;DHT22;10785;50.674;17.954;2023-06-26T15:42:46;28.40;1.00
21255;DHT22;10785;50.674;17.954;2023-06-26T15:45:16;28.50;1.00
21255;DHT22;10785;50.674;17.954;2023-06-26T15:47:45;28.50;1.00
21255;DHT22;10785;50.674;17.954;2023-06-26T15:50:15;28.50;1.00
21255;DHT22;10785;50.674;17.954;2023-06-26T15:52:45;28.50;1.00
21255;DHT22;10785;50.674;17.954;2023-06-26T15:55:13;28.50;1.00
21255;DHT22;10785;50.674;17.954;2023-06-26T15:57:42;28.30;1.00
21255;DHT22;10785;50.674;17.954;2023-06-26T16:00:13;28.20;1.00
21255;DHT22;10785;50.674;17.954;2023-06-26T16:02:43;28.20;1.00
21255;DHT22;10785;50.674;17.954;2023-06-26T16:05:12;28.20;1.00
21255;DHT22;10785;50.674;17.954;2023-06-26T16:07:41;28.20;1.00
21255;DHT22;10785;50.674;17.954;2023-06-26T16:10:24;28.30;1.00
21255;DHT22;10785;50.674;17.954;2023-06-26T16:12:53;28.20;1.00
21255;DHT22;10785;50.674;17.954;2023-06-26T16:15:23;28.30;1.00
21255;DHT22;10785;50.674;17.954;2023-06-26T16:17:52;28.40;1.00
21255;DHT22;10785;50.674;17.954;2023-06-26T16:20:21;28.50;1.00
21255;DHT22;10785;50.674;17.954;2023-06-26T16:22:49;28.50;1.00
21255;DHT22;10785;50.674;17.954;2023-06-26T16:25:18;28.60;1.00
21255;DHT22;10785;50.674;17.954;2023-06-26T16:27:47;28.70;1.00
21255;DHT22;10785;50.674;17.954;2023-06-26T16:30:16;28.70;1.00
21255;DHT22;10785;50.674;17.954;2023-06-26T16:32:47;28.40;1.00
21255;DHT22;10785;50.674;17.954;2023-06-26T16:35:15;28.20;1.00
21255;DHT22;10785;50.674;17.954;2023-06-26T16:37:44;28.10;1.00
21255;DHT22;10785;50.674;17.954;2023-06-26T16:40:13;28.00;1.00
21255;DHT22;10785;50.674;17.954;2023-06-26T16:42:42;28.10;1.00
21255;DHT22;10785;50.674;17.954;2023-06-26T16:45:10;28.10;1.00
21255;DHT22;10785;50.674;17.954;2023-06-26T16:47:39;27.90;1.00
21255;DHT22;10785;50.674;17.954;2023-06-26T16:50:10;27.90;1.00
21255;DHT22;10785;50.674;17.954;2023-06-26T16:52:39;27.70;1.00
21255;DHT22;10785;50.674;17.954;2023-06-26T16:55:10;27.60;1.00
21255;DHT22;10785;50.674;17.954;2023-06-26T16:57:39;27.50;1.00
21255;DHT22;10785;50.674;17.954;2023-06-26T17:00:11;27.50;1.00
21255;DHT22;10785;50.674;17.954;2023-06-26T17:02:43;27.40;1.00
21255;DHT22;10785;50.674;17.954;2023-06-26T17:05:14;27.30;1.00